Time;durP1;ratioP1;P1;durP2;ratioP2;P2;SDS_P1;SDS_P2;PMS_P1;PMS_P2;Temp;Humidity;BMP_temperature;BMP_pressure;BME280_temperature;BME280_humidity;BME280_pressure;Samples;Min_cycle;Max_cycle;Signal;HPM_P1;HPM_P2
2021/03/06 00:00:26;;;;;;;11.87;3.90;;;-0.80;99.90;;;-0.01;100.00;99545.09;5008603;28;20447;-79
2021/03/06 00:02:54;;;;;;;5.93;3.17;;;-1.00;99.90;;;-0.01;100.00;99545.09;5004746;28;20474;-79
2021/03/06 00:05:25;;;;;;;4.03;3.23;;;-0.90;99.90;;;-0.01;100.00;99550.22;5010165;28;20825;-79
2021/03/06 00:07:53;;;;;;;4.53;3.30;;;-0.90;99.90;;;-0.10;100.00;99550.72;5006333;28;20502;-79
2021/03/06 00:10:21;;;;;;;5.97;3.43;;;-1.10;99.90;;;-0.22;100.00;99553.97;5008431;28;20908;-79
2021/03/06 00:12:51;;;;;;;5.10;3.23;;;-1.20;99.90;;;-0.29;100.00;99552.63;5009850;28;20462;-80
2021/03/06 00:15:22;;;;;;;4.30;2.97;;;-1.30;99.90;;;-0.33;100.00;99553.69;5008264;28;20459;-79
2021/03/06 00:17:49;;;;;;;6.10;2.87;;;-1.40;99.90;;;-0.39;100.00;99554.03;5004467;28;20944;-79
2021/03/06 00:20:19;;;;;;;4.00;3.10;;;-1.40;99.90;;;-0.34;100.00;99563.13;5008093;28;20465;-79
2021/03/06 00:22:47;;;;;;;3.53;2.80;;;-1.20;99.90;;;-0.37;100.00;99554.75;5008377;28;20549;-79
2021/03/06 00:25:17;;;;;;;5.67;3.40;;;-1.40;99.90;;;-0.37;100.00;99552.19;5006271;28;20481;-79
2021/03/06 00:27:45;;;;;;;4.53;2.60;;;-1.40;99.90;;;-0.47;100.00;99551.03;5008608;28;20489;-80
2021/03/06 00:30:17;;;;;;;7.23;3.03;;;-1.50;99.90;;;-0.43;100.00;99561.06;5006652;28;20462;-79
2021/03/06 00:32:45;;;;;;;4.97;3.20;;;-1.40;99.90;;;-0.47;100.00;99556.16;5005662;28;20483;-79
2021/03/06 00:35:14;;;;;;;5.77;3.50;;;-1.50;99.90;;;-0.55;100.00;99549.69;5008236;28;20455;-80
2021/03/06 00:37:42;;;;;;;5.63;3.30;;;-1.50;99.90;;;-0.53;100.00;99558.16;5006517;28;20841;-79
2021/03/06 00:40:12;;;;;;;4.83;2.77;;;-1.40;99.90;;;-0.54;100.00;99553.09;5006016;28;20476;-79
2021/03/06 00:42:40;;;;;;;4.10;3.10;;;-1.50;99.90;;;-0.40;100.00;99558.34;5004723;28;20467;-79
2021/03/06 00:45:09;;;;;;;5.50;3.30;;;-1.30;99.90;;;-0.38;100.00;99553.13;5007607;28;20473;-79
2021/03/06 00:47:38;;;;;;;8.87;4.10;;;-1.40;99.90;;;-0.53;100.00;99558.16;5008048;28;20486;-80
2021/03/06 00:50:12;;;;;;;5.27;4.03;;;-1.50;99.90;;;-0.48;100.00;99554.50;5006665;28;20911;-79
2021/03/06 00:52:40;;;;;;;4.07;2.90;;;-1.40;99.90;;;-0.57;100.00;99561.78;5003676;28;20499;-80
2021/03/06 00:55:09;;;;;;;6.73;3.00;;;-1.60;99.90;;;-0.62;100.00;99560.34;5007400;28;20470;-79
2021/03/06 00:57:37;;;;;;;3.77;3.00;;;-1.60;99.90;;;-0.70;100.00;99565.91;5006411;28;20491;-80
2021/03/06 01:00:07;;;;;;;8.00;3.47;;;-1.60;99.90;;;-0.72;100.00;99566.88;5008238;28;20513;-79
2021/03/06 01:02:34;;;;;;;6.80;3.30;;;-1.70;99.90;;;-0.75;100.00;99562.75;5004142;28;20467;-79
2021/03/06 01:05:04;;;;;;;10.57;3.23;;;-1.70;99.90;;;-0.66;100.00;99562.25;5006903;28;20844;-80
2021/03/06 01:07:32;;;;;;;4.33;2.93;;;-1.70;99.90;;;-0.61;100.00;99554.31;5008215;28;20524;-80
2021/03/06 01:09:59;;;;;;;3.67;2.93;;;-1.60;99.90;;;-0.71;100.00;99553.97;5000329;28;20465;-79
2021/03/06 01:12:27;;;;;;;3.87;2.73;;;-1.70;99.90;;;-0.74;100.00;99548.16;4998912;28;20453;-79
2021/03/06 01:14:54;;;;;;;6.60;3.20;;;-1.60;99.90;;;-0.79;100.00;99545.81;5006067;28;20474;-80
2021/03/06 01:17:22;;;;;;;5.50;3.30;;;-1.80;99.90;;;-0.90;100.00;99542.19;5006182;28;20514;-80
2021/03/06 01:19:49;;;;;;;4.80;3.43;;;-1.90;99.90;;;-0.74;100.00;99555.88;5005567;28;20561;-79
2021/03/06 01:22:18;;;;;;;6.53;3.70;;;-1.70;99.90;;;-0.76;100.00;99549.97;5006164;28;20881;-79
2021/03/06 01:24:45;;;;;;;6.17;3.10;;;-1.70;99.90;;;-0.67;100.00;99545.22;5004923;28;20468;-80
2021/03/06 01:27:13;;;;;;;6.47;3.43;;;-1.60;99.90;;;-0.71;100.00;99543.69;5002458;28;20861;-80
2021/03/06 01:29:40;;;;;;;3.70;3.20;;;-1.70;99.90;;;-0.76;100.00;99545.66;5007421;28;20529;-79
2021/03/06 01:32:08;;;;;;;4.70;3.30;;;-1.70;99.90;;;-0.93;100.00;99542.31;5003492;28;20459;-79
2021/03/06 01:34:36;;;;;;;5.80;2.83;;;-1.90;99.90;;;-0.88;100.00;99543.75;5005794;28;20561;-79
2021/03/06 01:37:03;;;;;;;4.70;3.30;;;-1.90;99.90;;;-0.95;100.00;99541.56;5005162;28;20475;-79
2021/03/06 01:39:32;;;;;;;6.00;3.40;;;-1.90;99.90;;;-0.99;100.00;99546.03;5006560;28;20525;-80
2021/03/06 01:41:59;;;;;;;3.90;2.93;;;-2.00;99.90;;;-0.88;100.00;99533.47;5001788;28;20458;-79
2021/03/06 01:44:27;;;;;;;4.73;3.23;;;-1.80;99.90;;;-0.87;100.00;99535.16;5005080;28;20857;-79
2021/03/06 01:46:54;;;;;;;4.63;3.50;;;-1.80;99.90;;;-0.97;100.00;99536.50;5004124;28;20528;-80
2021/03/06 01:49:22;;;;;;;5.27;2.80;;;-1.90;99.90;;;-1.08;100.00;99536.22;5005832;28;20509;-79
2021/03/06 01:51:50;;;;;;;5.97;3.00;;;-2.10;99.90;;;-1.10;100.00;99544.00;5004611;28;20891;-80
2021/03/06 01:54:22;;;;;;;3.53;2.97;;;-2.10;99.90;;;-1.13;100.00;99522.78;5007249;28;20463;-79
2021/03/06 01:56:52;;;;;;;3.27;2.70;;;-2.10;99.90;;;-1.17;100.00;99528.97;5000475;28;21014;-80
2021/03/06 01:59:20;;;;;;;5.67;3.10;;;-2.10;99.90;;;-1.18;100.00;99532.47;5007533;28;20971;-79
2021/03/06 02:01:47;;;;;;;6.47;3.57;;;-2.20;99.90;;;-1.23;100.00;99534.44;5005887;28;20524;-79
2021/03/06 02:04:16;;;;;;;4.70;2.93;;;-2.20;99.90;;;-1.27;100.00;99535.47;5003923;28;20877;-79
2021/03/06 02:06:44;;;;;;;5.33;2.73;;;-2.20;99.90;;;-1.30;100.00;99533.91;5006793;28;20466;-79
2021/03/06 02:09:11;;;;;;;4.50;2.87;;;-2.20;99.90;;;-1.29;100.00;99529.59;5007184;28;20555;-79
2021/03/06 02:11:53;;;;;;;7.33;3.80;;;-2.30;99.90;;;-1.29;100.00;99530.44;5007401;28;20450;-79
2021/03/06 02:15:05;;;;;;;6.57;3.73;;;-2.30;99.90;;;-1.28;100.00;99533.81;5006751;28;20555;-79
2021/03/06 02:17:42;;;;;;;4.80;3.07;;;-2.30;99.90;;;-1.35;100.00;99532.47;5000644;28;20475;-79
2021/03/06 02:20:59;;;;;;;8.80;3.23;;;-2.30;99.90;;;-1.39;100.00;99533.53;5001423;28;20490;-79
2021/03/06 02:24:07;;;;;;;9.20;3.37;;;-2.30;99.90;;;-1.35;100.00;99532.47;4962160;28;20463;-79
2021/03/06 02:27:05;;;;;;;5.07;3.20;;;-2.40;99.90;;;-1.37;100.00;99536.84;5006920;28;20910;-79
2021/03/06 02:29:52;;;;;;;4.40;3.40;;;-2.40;99.90;;;-1.49;100.00;99537.47;4997520;28;21089;-80
2021/03/06 02:32:25;;;;;;;4.70;3.03;;;-2.50;99.90;;;-1.57;100.00;99536.09;5005827;28;21049;-79
2021/03/06 02:35:05;;;;;;;5.23;3.30;;;-2.50;99.90;;;-1.49;100.00;99534.91;5003622;28;20458;-79
2021/03/06 02:37:36;;;;;;;5.73;3.43;;;-2.50;99.90;;;-1.57;100.00;99536.09;5005005;28;21030;-79
2021/03/06 02:40:07;;;;;;;6.27;3.77;;;-2.60;99.90;;;-1.59;100.00;99535.31;5004075;28;20968;-79
2021/03/06 02:42:37;;;;;;;4.97;3.20;;;-2.60;99.90;;;-1.53;100.00;99537.59;5004218;28;20455;-79
2021/03/06 02:45:09;;;;;;;4.80;2.90;;;-2.40;99.90;;;-1.61;100.00;99539.72;5006041;28;20469;-80
2021/03/06 02:47:37;;;;;;;6.13;4.07;;;-2.60;99.90;;;-1.49;100.00;99529.78;5007024;28;20499;-79
2021/03/06 02:50:09;;;;;;;4.60;2.40;;;-2.50;99.90;;;-1.44;100.00;99532.91;5009722;28;20517;-79
2021/03/06 02:52:37;;;;;;;4.10;2.87;;;-2.40;99.90;;;-1.47;100.00;99535.63;5002718;28;20489;-79
2021/03/06 02:55:07;;;;;;;4.43;3.23;;;-2.50;99.90;;;-1.54;100.00;99533.38;5009774;28;20975;-79
2021/03/06 02:58:11;;;;;;;4.53;3.07;;;-2.50;99.90;;;-1.49;100.00;99537.47;5006996;28;20499;-79
2021/03/06 03:00:45;;;;;;;5.30;3.10;;;-2.40;99.90;;;-1.64;100.00;99539.88;5009306;28;20971;-79
2021/03/06 03:03:41;;;;;;;3.40;2.90;;;-2.60;99.90;;;-1.72;100.00;99541.94;5009248;28;20459;-79
2021/03/06 03:06:15;;;;;;;4.67;3.40;;;-2.70;99.90;;;-1.70;100.00;99540.13;5006164;28;20476;-79
2021/03/06 03:08:59;;;;;;;8.07;3.50;;;-2.70;99.90;;;-1.72;100.00;99539.38;5008654;28;21069;-83
2021/03/06 03:11:41;;;;;;;4.67;3.20;;;-2.70;99.90;;;-1.73;100.00;99540.28;5008220;28;20475;-79
2021/03/06 03:14:14;;;;;;;4.63;3.03;;;-2.70;99.90;;;-1.78;100.00;99543.97;5009044;28;20491;-79
2021/03/06 03:16:52;;;;;;;4.97;2.83;;;-2.70;99.90;;;-1.87;100.00;99542.66;5007587;28;20680;-79
2021/03/06 03:19:31;;;;;;;7.50;3.50;;;-2.80;99.90;;;-1.90;100.00;99537.69;5009021;28;20447;-79
2021/03/06 03:22:02;;;;;;;4.83;3.00;;;-2.80;99.90;;;-1.89;100.00;99541.94;5008369;28;20472;-79
2021/03/06 03:24:36;;;;;;;6.53;3.93;;;-2.90;99.90;;;-1.95;100.00;99538.81;5009654;28;20484;-79
2021/03/06 03:27:10;;;;;;;4.40;3.03;;;-2.90;99.90;;;-1.89;100.00;99541.94;5009817;28;20466;-79
2021/03/06 03:29:41;;;;;;;5.20;3.50;;;-2.80;99.90;;;-1.79;100.00;99543.16;5008024;28;20872;-79
2021/03/06 03:32:12;;;;;;;6.40;3.83;;;-2.70;99.90;;;-1.89;100.00;99547.06;5006035;28;20470;-79
2021/03/06 03:34:42;;;;;;;4.47;3.17;;;-2.80;99.90;;;-1.97;100.00;99541.44;5008895;28;20829;-79
2021/03/06 03:37:12;;;;;;;5.10;3.10;;;-2.90;99.90;;;-2.06;100.00;99544.44;5009134;28;20455;-79
2021/03/06 03:39:41;;;;;;;5.10;3.53;;;-2.90;99.90;;;-2.03;100.00;99541.75;5008102;28;20497;-79
2021/03/06 03:42:10;;;;;;;6.13;3.67;;;-3.00;99.90;;;-2.06;100.00;99541.88;5007636;28;20468;-80
2021/03/06 03:44:39;;;;;;;4.67;3.23;;;-3.00;99.90;;;-2.16;100.00;99551.75;5007371;28;20459;-79
2021/03/06 03:47:08;;;;;;;9.43;3.60;;;-3.10;99.90;;;-2.15;100.00;99548.25;5005897;28;20466;-80
2021/03/06 03:49:36;;;;;;;4.57;3.23;;;-3.10;99.90;;;-2.11;100.00;99543.81;5008334;28;20510;-79
2021/03/06 03:52:05;;;;;;;4.60;2.97;;;-3.10;99.90;;;-2.14;100.00;99546.53;5004784;28;20518;-79
2021/03/06 03:54:34;;;;;;;4.07;3.03;;;-3.10;99.90;;;-2.27;100.00;99551.38;5009702;28;20458;-79
2021/03/06 03:57:03;;;;;;;4.00;2.87;;;-3.20;99.90;;;-2.16;100.00;99556.03;5007468;28;20544;-79
2021/03/06 03:59:32;;;;;;;4.70;3.00;;;-3.10;99.90;;;-2.19;100.00;99557.00;5005629;28;20482;-79
2021/03/06 04:02:00;;;;;;;6.47;3.83;;;-3.10;99.90;;;-2.11;100.00;99561.75;5006974;28;20466;-79
2021/03/06 04:04:33;;;;;;;5.17;3.17;;;-3.10;99.90;;;-2.13;100.00;99556.72;5008318;28;20490;-79
2021/03/06 04:07:02;;;;;;;7.27;3.73;;;-3.10;99.90;;;-2.14;100.00;99559.34;5009265;28;20507;-79
2021/03/06 04:09:30;;;;;;;4.90;3.43;;;-3.10;99.90;;;-2.07;100.00;99560.72;5007744;28;20479;-79
2021/03/06 04:11:58;;;;;;;5.37;3.33;;;-2.90;99.90;;;-2.12;100.00;99558.34;5007259;28;20476;-80
2021/03/06 04:14:25;;;;;;;7.37;2.97;;;-3.10;99.90;;;-2.20;100.00;99562.19;5006375;28;20471;-79
2021/03/06 04:16:53;;;;;;;5.10;3.27;;;-3.10;99.90;;;-2.28;100.00;99566.81;5004871;28;20466;-79
2021/03/06 04:19:21;;;;;;;5.77;3.30;;;-3.20;99.90;;;-2.21;100.00;99568.19;5007003;28;20491;-80
2021/03/06 04:21:48;;;;;;;6.00;4.00;;;-3.10;99.90;;;-2.16;100.00;99563.72;5009207;28;20470;-80
2021/03/06 04:24:17;;;;;;;4.60;3.43;;;-3.10;99.90;;;-2.27;100.00;99560.81;5008009;28;20478;-79
2021/03/06 04:26:50;;;;;;;2.97;2.70;;;-3.20;99.90;;;-2.29;100.00;99571.09;5008288;28;20990;-79
2021/03/06 04:29:19;;;;;;;6.27;2.87;;;-3.20;99.90;;;-2.39;100.00;99569.03;5006349;28;20573;-79
2021/03/06 04:31:47;;;;;;;4.30;2.90;;;-3.30;99.90;;;-2.35;100.00;99575.66;5006089;28;20463;-80
2021/03/06 04:34:14;;;;;;;4.83;3.20;;;-3.30;99.90;;;-2.26;100.00;99577.84;5007419;28;20441;-80
2021/03/06 04:36:42;;;;;;;5.80;3.20;;;-3.20;99.90;;;-2.36;100.00;99574.84;5007201;28;20534;-80
2021/03/06 04:39:10;;;;;;;6.10;3.60;;;-3.30;99.90;;;-2.35;100.00;99575.66;5008773;28;20458;-79
2021/03/06 04:41:38;;;;;;;7.43;3.67;;;-3.30;99.90;;;-2.36;100.00;99579.16;5006775;28;20525;-79
2021/03/06 04:44:07;;;;;;;4.63;3.27;;;-3.30;99.90;;;-2.41;100.00;99581.06;5006693;28;20470;-79
2021/03/06 04:46:35;;;;;;;7.83;3.83;;;-3.30;99.90;;;-2.41;100.00;99584.47;5006290;28;20526;-79
2021/03/06 04:49:03;;;;;;;4.53;3.10;;;-3.30;99.90;;;-2.36;100.00;99589.41;5006122;28;21317;-80
2021/03/06 04:51:31;;;;;;;6.07;3.60;;;-3.30;99.90;;;-2.48;100.00;99584.81;5008278;28;20453;-79
2021/03/06 04:53:59;;;;;;;10.00;3.17;;;-3.40;99.90;;;-2.53;100.00;99584.19;5005865;28;20478;-79
2021/03/06 04:56:27;;;;;;;5.07;3.47;;;-3.50;99.90;;;-2.54;100.00;99585.91;5007382;28;20980;-79
2021/03/06 04:58:55;;;;;;;6.80;2.93;;;-3.30;99.90;;;-2.56;100.00;99585.97;5004817;28;20459;-79
2021/03/06 05:01:23;;;;;;;3.70;3.00;;;-3.50;99.90;;;-2.43;100.00;99585.44;5004614;28;20437;-79
2021/03/06 05:03:50;;;;;;;4.77;3.20;;;-3.30;99.90;;;-2.47;100.00;99574.50;5002922;28;21030;-79
2021/03/06 05:06:17;;;;;;;4.93;3.37;;;-3.40;99.90;;;-2.59;100.00;99578.44;4998724;28;20429;-80
2021/03/06 05:08:45;;;;;;;4.30;2.93;;;-3.50;99.90;;;-2.57;100.00;99581.75;4998077;28;20503;-79
2021/03/06 05:11:13;;;;;;;3.70;3.30;;;-3.50;99.90;;;-2.61;100.00;99581.97;5004290;28;20466;-79
2021/03/06 05:13:40;;;;;;;4.30;2.70;;;-3.50;99.90;;;-2.61;100.00;99576.84;5007490;28;20436;-79
2021/03/06 05:16:09;;;;;;;4.97;3.40;;;-3.60;99.90;;;-2.60;100.00;99574.19;5005708;28;20941;-79
2021/03/06 05:18:36;;;;;;;9.10;3.10;;;-3.50;99.90;;;-2.69;100.00;99586.56;5005917;28;20469;-80
2021/03/06 05:21:04;;;;;;;6.40;3.30;;;-3.60;99.90;;;-2.66;100.00;99586.44;5005734;28;20438;-80
2021/03/06 05:23:32;;;;;;;4.50;2.63;;;-3.60;99.90;;;-2.61;100.00;99594.75;5005811;28;21174;-80
2021/03/06 05:25:59;;;;;;;6.97;3.00;;;-3.50;99.90;;;-2.61;100.00;99595.59;5005739;28;20488;-80
2021/03/06 05:28:27;;;;;;;7.10;3.07;;;-3.50;99.90;;;-2.73;100.00;99596.13;5003956;28;20487;-81
2021/03/06 05:30:57;;;;;;;4.13;3.10;;;-3.70;99.90;;;-2.72;100.00;99597.78;5004135;28;20470;-79
2021/03/06 05:33:26;;;;;;;4.17;2.93;;;-3.70;99.90;;;-2.72;100.00;99596.94;5003508;28;20887;-79
2021/03/06 05:35:53;;;;;;;6.70;3.63;;;-3.70;99.90;;;-2.81;100.00;99598.16;5005266;28;20448;-81
2021/03/06 05:38:21;;;;;;;4.47;2.87;;;-3.70;99.90;;;-2.77;100.00;99597.13;5006897;28;20497;-80
2021/03/06 05:40:49;;;;;;;7.60;2.90;;;-3.70;99.90;;;-2.80;100.00;99597.28;5005069;28;20464;-80
2021/03/06 05:43:17;;;;;;;12.60;3.00;;;-3.80;99.90;;;-3.03;100.00;99597.41;5005390;28;20486;-79
2021/03/06 05:45:48;;;;;;;4.33;3.13;;;-4.00;99.90;;;-2.95;100.00;99595.34;5007069;28;20628;-80
2021/03/06 05:48:18;;;;;;;5.60;3.37;;;-3.90;99.90;;;-2.83;100.00;99599.97;5007419;28;20499;-80
2021/03/06 05:50:47;;;;;;;7.43;3.07;;;-3.70;99.90;;;-2.87;100.00;99601.00;5005994;28;20555;-80
2021/03/06 05:53:15;;;;;;;4.53;2.47;;;-3.80;99.90;;;-2.97;100.00;99607.38;5007561;28;20488;-80
2021/03/06 05:55:49;;;;;;;5.30;2.87;;;-3.90;99.90;;;-2.99;100.00;99603.25;5007377;28;20764;-80
2021/03/06 05:58:20;;;;;;;4.70;2.90;;;-3.90;99.90;;;-2.95;100.00;99605.59;5006279;28;20517;-80
2021/03/06 06:00:48;;;;;;;3.80;2.70;;;-3.90;99.90;;;-2.90;100.00;99592.59;5006360;28;20469;-80
2021/03/06 06:03:18;;;;;;;7.73;3.37;;;-3.80;99.90;;;-2.97;100.00;99597.16;5006967;28;20439;-79
2021/03/06 06:05:47;;;;;;;3.63;2.87;;;-3.90;99.90;;;-2.89;100.00;99590.00;5006737;28;20551;-80
2021/03/06 06:08:16;;;;;;;4.13;2.57;;;-3.80;99.90;;;-2.84;100.00;99597.47;5005558;28;20798;-80
2021/03/06 06:10:44;;;;;;;4.67;3.27;;;-3.70;99.90;;;-2.90;100.00;99590.06;5006524;28;20456;-80
2021/03/06 06:13:13;;;;;;;6.10;3.23;;;-3.80;99.90;;;-2.80;100.00;99589.59;5006737;28;20945;-80
2021/03/06 06:15:41;;;;;;;8.13;3.17;;;-3.60;99.90;;;-2.88;100.00;99585.72;5006286;28;20437;-80
2021/03/06 06:18:09;;;;;;;4.50;3.50;;;-3.80;99.90;;;-2.96;100.00;99583.47;5006150;28;20421;-80
2021/03/06 06:20:38;;;;;;;7.27;3.77;;;-3.90;99.90;;;-2.93;100.00;99587.63;5006767;28;20429;-80
2021/03/06 06:23:12;;;;;;;8.67;3.43;;;-3.90;99.90;;;-2.88;100.00;99596.75;5008812;28;20455;-80
2021/03/06 06:25:44;;;;;;;5.07;3.53;;;-3.80;99.90;;;-2.89;100.00;99589.16;5010849;28;20454;-80
2021/03/06 06:28:23;;;;;;;6.50;3.37;;;-3.80;99.90;;;-2.98;100.00;99590.38;5010771;28;20456;-80
2021/03/06 06:31:10;;;;;;;3.83;3.00;;;-3.90;99.90;;;-2.93;100.00;99593.56;5010868;28;20459;-80
2021/03/06 06:33:38;;;;;;;3.47;2.80;;;-3.70;99.90;;;-2.83;100.00;99602.53;5010138;28;20433;-80
2021/03/06 06:36:06;;;;;;;4.73;3.23;;;-3.70;99.90;;;-2.89;100.00;99599.41;5010768;28;20491;-80
2021/03/06 06:38:45;;;;;;;7.00;3.40;;;-3.80;99.90;;;-3.00;100.00;99604.13;5011081;28;20450;-80
2021/03/06 06:41:12;;;;;;;5.27;3.80;;;-3.90;99.90;;;-2.91;100.00;99607.13;5008911;28;20442;-80
2021/03/06 06:43:40;;;;;;;5.23;3.00;;;-3.80;99.90;;;-2.86;100.00;99607.78;5010429;28;20421;-80
2021/03/06 06:46:10;;;;;;;4.90;3.70;;;-3.80;99.90;;;-2.88;100.00;99607.00;5010687;28;20995;-80
2021/03/06 06:48:59;;;;;;;6.20;3.40;;;-3.80;99.90;;;-2.93;100.00;99608.09;5010664;28;20487;-80
2021/03/06 06:51:26;;;;;;;6.60;3.60;;;-3.90;99.90;;;-2.88;100.00;99614.66;5009421;28;20485;-80
2021/03/06 06:54:09;;;;;;;3.97;3.57;;;-3.80;99.90;;;-2.88;100.00;99614.66;5009787;28;20466;-80
2021/03/06 06:56:37;;;;;;;4.67;3.00;;;-3.80;99.90;;;-2.75;100.00;99609.88;5009515;28;20479;-80
2021/03/06 06:59:08;;;;;;;6.17;3.40;;;-3.60;99.90;;;-2.79;100.00;99613.47;5006625;28;20470;-80
2021/03/06 07:01:45;;;;;;;4.23;3.00;;;-3.70;99.90;;;-2.72;100.00;99607.19;5010582;28;20978;-80
2021/03/06 07:04:13;;;;;;;3.47;3.17;;;-3.60;99.90;;;-2.62;100.00;99611.84;5010693;28;20429;-80
2021/03/06 07:06:57;;;;;;;3.30;2.87;;;-3.50;99.90;;;-2.70;100.00;99621.56;5005958;28;20470;-80
2021/03/06 07:09:26;;;;;;;6.27;3.30;;;-3.50;99.90;;;-2.70;100.00;99623.28;5006959;28;20468;-80
2021/03/06 07:11:53;;;;;;;9.00;4.00;;;-3.60;99.90;;;-2.65;100.00;99616.28;5009424;28;20459;-80
2021/03/06 07:14:36;;;;;;;4.50;3.57;;;-3.50;99.90;;;-2.68;100.00;99619.78;5007820;28;20463;-81
2021/03/06 07:17:05;;;;;;;5.97;3.70;;;-3.60;99.90;;;-2.59;100.00;99623.66;5007043;28;20469;-80
2021/03/06 07:19:40;;;;;;;6.50;3.40;;;-3.50;99.90;;;-2.60;100.00;99627.97;5006795;28;20471;-80
2021/03/06 07:22:08;;;;;;;4.60;3.20;;;-3.40;99.90;;;-2.63;100.00;99627.25;5006771;28;20828;-80
2021/03/06 07:24:37;;;;;;;4.73;3.87;;;-3.50;99.90;;;-2.56;100.00;99624.38;5006393;28;20438;-80
2021/03/06 07:27:05;;;;;;;5.40;3.07;;;-3.40;99.90;;;-2.47;100.00;99627.44;5006706;28;20445;-80
2021/03/06 07:29:33;;;;;;;5.13;3.23;;;-3.30;99.90;;;-2.51;100.00;99625.91;5005982;28;20509;-81
2021/03/06 07:32:02;;;;;;;5.63;3.80;;;-3.30;99.90;;;-2.50;100.00;99627.59;5006665;28;20436;-80
2021/03/06 07:34:32;;;;;;;4.47;3.67;;;-3.20;99.90;;;-2.44;100.00;99622.19;5007195;28;20445;-80
2021/03/06 07:37:06;;;;;;;4.43;3.23;;;-3.30;99.90;;;-2.39;100.00;99622.78;5004993;28;20475;-80
2021/03/06 07:39:43;;;;;;;6.77;3.73;;;-3.20;99.90;;;-2.43;100.00;99623.84;5007760;28;20472;-81
2021/03/06 07:42:29;;;;;;;6.30;3.37;;;-3.30;99.90;;;-2.34;100.00;99626.00;5004007;28;20688;-81
2021/03/06 07:44:57;;;;;;;4.23;3.50;;;-3.20;99.90;;;-2.27;100.00;99630.78;5009169;28;20542;-80
2021/03/06 07:47:39;;;;;;;7.60;3.90;;;-2.90;99.90;;;-2.19;100.00;99627.91;5005353;28;20465;-81
2021/03/06 07:50:14;;;;;;;7.27;4.43;;;-2.90;99.90;;;-2.07;100.00;99632.44;5006490;28;20518;-80
2021/03/06 07:52:42;;;;;;;4.30;3.83;;;-2.80;99.90;;;-2.08;100.00;99635.91;5004563;28;20779;-79
2021/03/06 07:55:14;;;;;;;7.00;4.00;;;-2.90;99.90;;;-2.05;100.00;99634.03;5008965;28;20451;-79
2021/03/06 07:58:05;;;;;;;6.83;4.37;;;-2.90;99.90;;;-1.92;100.00;99626.66;5005125;28;20495;-80
2021/03/06 08:00:49;;;;;;;6.37;4.03;;;-2.60;99.90;;;-1.83;100.00;99636.47;5006848;28;20482;-79
2021/03/06 08:03:38;;;;;;;6.77;4.27;;;-2.50;99.90;;;-1.74;100.00;99632.66;5006471;28;20563;-79
2021/03/06 08:06:18;;;;;;;7.80;4.10;;;-2.40;99.90;;;-1.61;100.00;99636.31;5005216;28;20494;-80
2021/03/06 08:09:05;;;;;;;4.60;3.40;;;-2.30;99.90;;;-1.50;100.00;99635.81;5005592;28;20517;-80
2021/03/06 08:11:51;;;;;;;3.40;2.60;;;-2.20;99.90;;;-1.35;100.00;99629.94;5005957;28;20467;-81
2021/03/06 08:14:41;;;;;;;10.50;3.30;;;-1.90;99.90;;;-1.20;100.00;99634.34;5006028;28;20441;-80
2021/03/06 08:17:37;;;;;;;5.97;2.93;;;-1.80;99.90;;;-1.03;100.00;99626.63;5007583;28;20472;-80
2021/03/06 08:20:21;;;;;;;5.23;3.37;;;-1.60;99.90;;;-0.91;100.00;99632.91;5004121;28;20521;-80
2021/03/06 08:23:19;;;;;;;4.10;3.07;;;-1.50;99.90;;;-0.78;100.00;99627.09;5008292;28;21087;-79
2021/03/06 08:26:21;;;;;;;3.57;2.77;;;-1.40;99.90;;;-0.64;100.00;99634.94;5009001;28;20467;-80
2021/03/06 08:28:49;;;;;;;3.40;3.03;;;-1.20;99.90;;;-0.53;100.00;99630.09;5008741;28;20801;-79
2021/03/06 08:31:40;;;;;;;4.10;3.00;;;-1.00;99.90;;;-0.43;100.00;99632.16;5007534;28;20422;-79
2021/03/06 08:34:30;;;;;;;3.93;3.00;;;-1.00;99.90;;;-0.33;100.00;99630.78;5007255;28;20822;-80
2021/03/06 08:37:36;;;;;;;3.87;2.63;;;-0.90;99.90;;;-0.24;100.00;99627.72;5006085;28;20478;-79
2021/03/06 08:40:13;;;;;;;9.20;5.80;;;-0.80;99.90;;;-0.13;100.00;99618.53;5004277;28;21175;-79
2021/03/06 08:42:44;;;;;;;4.40;3.10;;;-0.70;99.90;;;-0.03;99.75;99619.72;5004476;28;20516;-79
2021/03/06 08:45:17;;;;;;;4.70;2.93;;;-0.60;99.90;;;0.05;99.44;99626.19;5008337;28;20459;-79
2021/03/06 08:47:47;;;;;;;3.33;2.60;;;-0.50;99.90;;;0.13;99.45;99618.91;5009127;28;20455;-79
2021/03/06 08:50:19;;;;;;;3.93;3.00;;;-0.40;99.90;;;0.19;99.02;99616.81;5006445;28;20947;-79
2021/03/06 08:53:03;;;;;;;3.23;2.50;;;-0.40;99.90;;;0.26;98.95;99615.56;5007906;28;20546;-79
2021/03/06 08:55:33;;;;;;;4.40;3.23;;;-0.30;99.90;;;0.33;98.09;99614.34;5006647;28;20513;-79
2021/03/06 08:58:03;;;;;;;4.20;3.10;;;-0.20;99.90;;;0.38;97.58;99614.88;5007009;28;20470;-81
2021/03/06 09:00:36;;;;;;;4.10;2.97;;;-0.20;99.90;;;0.44;98.32;99609.44;5003201;28;20554;-80
2021/03/06 09:03:13;;;;;;;2.50;2.30;;;-0.20;99.90;;;0.54;95.28;99603.75;5008249;28;20454;-81
2021/03/06 09:05:43;;;;;;;5.93;2.87;;;0.00;99.70;;;0.58;94.46;99606.09;5005258;28;20474;-80
2021/03/06 09:08:10;;;;;;;2.90;2.37;;;0.10;99.80;;;0.66;92.46;99603.09;5004162;28;20469;-80
2021/03/06 09:10:42;;;;;;;4.20;2.80;;;0.20;99.30;;;0.74;90.93;99598.31;5004879;28;20582;-80
2021/03/06 09:13:15;;;;;;;3.90;2.80;;;0.30;99.00;;;0.81;89.58;99594.47;5005821;28;20538;-80
2021/03/06 09:15:49;;;;;;;10.00;2.90;;;0.40;98.80;;;0.87;89.89;99592.38;5003694;28;20455;-80
2021/03/06 09:18:21;;;;;;;6.60;3.57;;;0.40;98.60;;;0.94;87.33;99595.44;5003035;28;20979;-80
2021/03/06 09:20:57;;;;;;;4.97;3.17;;;0.50;98.20;;;1.00;88.19;99597.66;5002140;28;21101;-80
2021/03/06 09:23:30;;;;;;;3.67;2.83;;;0.50;98.80;;;1.06;87.93;99596.47;5005916;28;21730;-80
2021/03/06 09:26:05;;;;;;;5.70;3.20;;;0.60;98.50;;;1.12;88.69;99599.50;5005323;28;20467;-80
2021/03/06 09:28:35;;;;;;;4.50;3.10;;;0.60;98.40;;;1.17;87.82;99597.50;5003082;28;21100;-80
2021/03/06 09:31:10;;;;;;;4.03;3.03;;;0.70;98.50;;;1.24;85.08;99598.81;5005899;28;20513;-81
2021/03/06 09:33:39;;;;;;;7.10;2.53;;;0.80;97.30;;;1.32;83.65;99598.38;5005622;28;20454;-81
2021/03/06 09:36:10;;;;;;;4.70;2.87;;;0.80;96.70;;;1.39;81.71;99597.06;5001470;28;20494;-81
2021/03/06 09:38:49;;;;;;;8.13;2.80;;;0.90;96.50;;;1.43;81.46;99599.38;5006403;28;20471;-81
2021/03/06 09:41:20;;;;;;;4.63;2.77;;;1.00;96.20;;;1.50;78.77;99603.25;5005048;28;20589;-81
2021/03/06 09:43:51;;;;;;;4.40;2.60;;;1.10;95.90;;;1.56;77.61;99596.91;5007571;28;20984;-81
2021/03/06 09:46:23;;;;;;;3.50;2.53;;;1.10;95.40;;;1.62;74.36;99604.25;5007138;28;20881;-82
2021/03/06 09:48:53;;;;;;;3.53;2.50;;;1.10;94.70;;;1.66;72.80;99603.16;5006938;28;20839;-81
2021/03/06 09:51:23;;;;;;;3.90;2.70;;;1.20;94.30;;;1.73;72.73;99603.63;5005884;28;20904;-81
2021/03/06 09:53:59;;;;;;;3.30;1.93;;;1.20;94.50;;;1.79;72.20;99598.06;5003411;28;20475;-81
2021/03/06 09:56:27;;;;;;;5.30;2.80;;;1.30;94.20;;;1.82;70.94;99598.72;5007303;28;20494;-80
2021/03/06 09:59:01;;;;;;;3.73;2.17;;;1.30;93.80;;;1.86;69.66;99600.19;5008362;28;20455;-79
2021/03/06 10:01:33;;;;;;;3.57;2.30;;;1.30;93.20;;;1.90;68.99;99596.50;5009810;28;20439;-79
2021/03/06 10:04:12;;;;;;;4.13;2.83;;;1.40;93.40;;;1.96;68.97;99600.44;5001522;28;20478;-79
2021/03/06 10:06:43;;;;;;;6.50;2.50;;;1.50;93.20;;;1.99;67.79;99589.94;5006119;28;20879;-79
2021/03/06 10:09:13;;;;;;;3.57;2.60;;;1.60;93.00;;;2.06;68.07;99592.97;5005510;28;20476;-79
2021/03/06 10:11:44;;;;;;;2.13;1.93;;;1.50;93.30;;;2.11;67.55;99594.34;5006330;28;20526;-83
2021/03/06 10:14:17;;;;;;;2.93;2.20;;;1.60;93.20;;;2.17;65.83;99588.81;5005037;28;20475;-82
2021/03/06 10:16:48;;;;;;;3.27;1.97;;;1.70;92.70;;;2.26;64.00;99584.78;5003458;28;20470;-80
2021/03/06 10:19:18;;;;;;;3.97;2.47;;;1.70;91.90;;;2.28;64.50;99585.53;5004409;28;20475;-80
2021/03/06 10:22:01;;;;;;;4.10;2.40;;;1.70;92.00;;;2.33;64.80;99581.75;5004704;28;20471;-80
2021/03/06 10:24:30;;;;;;;6.53;2.40;;;1.80;92.60;;;2.43;63.19;99579.44;5003389;28;20469;-80
2021/03/06 10:26:59;;;;;;;3.77;2.57;;;1.90;91.70;;;2.45;64.62;99588.72;5002537;28;20450;-80
2021/03/06 10:29:29;;;;;;;3.27;2.30;;;1.90;92.40;;;2.50;64.74;99580.66;5003560;28;20501;-80
2021/03/06 10:32:01;;;;;;;4.53;2.60;;;2.00;92.50;;;2.51;63.15;99585.75;5000598;28;20481;-80
2021/03/06 10:34:49;;;;;;;4.50;3.20;;;1.90;91.90;;;2.59;64.17;99584.41;5004759;28;20467;-80
2021/03/06 10:37:19;;;;;;;4.47;2.90;;;2.00;92.30;;;2.64;64.49;99577.22;5003283;28;20662;-81